Time;durP1;ratioP1;P1;durP2;ratioP2;P2;SDS_P1;SDS_P2;PMS_P1;PMS_P2;Temp;Humidity;BMP_temperature;BMP_pressure;BME280_temperature;BME280_humidity;BME280_pressure;Samples;Min_cycle;Max_cycle;Signal;HPM_P1;HPM_P2
2023/01/09 00:00:47;;;;;;;4.07;1.77;;;7.90;99.90;;;;;;5023061;28;20042;-38
2023/01/09 00:03:12;;;;;;;3.65;2.08;;;7.90;99.90;;;;;;5009401;28;20515;-38
2023/01/09 00:05:38;;;;;;;4.53;1.85;;;7.90;99.90;;;;;;5006885;28;20076;-38
2023/01/09 00:08:04;;;;;;;2.10;1.80;;;7.90;99.90;;;;;;5006938;28;20037;-39
2023/01/09 00:10:30;;;;;;;3.83;2.13;;;7.90;99.90;;;;;;5011048;28;20059;-38
2023/01/09 00:12:56;;;;;;;2.97;1.83;;;7.90;99.90;;;;;;5006478;28;20042;-38
2023/01/09 00:15:21;;;;;;;4.82;2.50;;;7.90;99.90;;;;;;5005987;28;20066;-38
2023/01/09 00:17:48;;;;;;;3.45;2.50;;;7.90;99.90;;;;;;5005202;28;20116;-38
2023/01/09 00:20:14;;;;;;;3.70;2.10;;;7.90;99.90;;;;;;5002853;28;20048;-38
2023/01/09 00:22:40;;;;;;;3.13;2.55;;;7.90;99.90;;;;;;5000699;28;20042;-38
2023/01/09 00:25:06;;;;;;;5.07;2.83;;;7.90;99.90;;;;;;5008844;28;20100;-38
2023/01/09 00:27:33;;;;;;;4.22;2.88;;;7.90;99.90;;;;;;4990150;28;20042;-39
2023/01/09 00:30:00;;;;;;;5.03;2.85;;;7.90;99.90;;;;;;5009270;28;20034;-38
2023/01/09 00:32:27;;;;;;;5.22;3.00;;;7.90;99.90;;;;;;5003128;28;20413;-39
2023/01/09 00:34:54;;;;;;;4.80;2.80;;;7.90;99.90;;;;;;5008438;28;20045;-38
2023/01/09 00:37:19;;;;;;;3.92;3.10;;;7.90;99.90;;;;;;5007945;28;20038;-38
2023/01/09 00:39:45;;;;;;;5.32;3.10;;;7.80;99.90;;;;;;5009181;28;20483;-39
2023/01/09 00:42:15;;;;;;;6.60;3.33;;;7.80;99.90;;;;;;5003952;28;20039;-39
2023/01/09 00:44:45;;;;;;;3.70;3.00;;;7.70;99.90;;;;;;5010815;28;20037;-41
2023/01/09 00:47:16;;;;;;;6.05;3.90;;;7.70;99.90;;;;;;5012099;28;20038;-41
2023/01/09 00:49:43;;;;;;;3.63;2.63;;;7.60;99.90;;;;;;5004576;28;20042;-39
2023/01/09 00:52:11;;;;;;;4.70;3.25;;;7.60;99.90;;;;;;5010509;28;20088;-41
2023/01/09 00:54:39;;;;;;;3.70;1.85;;;7.60;99.90;;;;;;5007771;28;20500;-40
2023/01/09 00:57:05;;;;;;;3.00;2.05;;;7.50;99.90;;;;;;5010016;28;20045;-40
2023/01/09 00:59:31;;;;;;;2.13;1.90;;;7.50;99.90;;;;;;5011236;28;20038;-40
2023/01/09 01:01:57;;;;;;;2.33;1.67;;;7.40;99.90;;;;;;5008808;28;20060;-40
2023/01/09 01:09:51;;;;;;;2.03;1.40;;;7.30;99.90;;;;;;5006540;28;19928;-40
2023/01/09 01:12:16;;;;;;;5.15;1.90;;;7.30;99.90;;;;;;5003180;28;20030;-39
2023/01/09 01:14:42;;;;;;;4.57;2.58;;;7.30;99.90;;;;;;5003810;28;20034;-39
2023/01/09 01:17:08;;;;;;;2.55;1.73;;;7.20;99.90;;;;;;5002209;28;20044;-40
2023/01/09 01:19:35;;;;;;;4.07;2.17;;;7.20;99.90;;;;;;5001886;28;20057;-40
2023/01/09 01:22:01;;;;;;;4.20;2.50;;;7.20;99.90;;;;;;5005465;28;20050;-39
2023/01/09 01:24:27;;;;;;;3.88;2.55;;;7.20;99.90;;;;;;5005774;28;20483;-39
2023/01/09 01:26:52;;;;;;;4.82;3.28;;;7.20;99.90;;;;;;5003011;28;20106;-39
2023/01/09 01:29:18;;;;;;;4.90;3.17;;;7.10;99.90;;;;;;5008881;28;20072;-39
2023/01/09 01:31:44;;;;;;;5.20;3.55;;;7.10;99.90;;;;;;5004279;28;20057;-40
2023/01/09 01:34:09;;;;;;;6.18;4.18;;;7.10;99.90;;;;;;5003894;28;20081;-39
2023/01/09 01:36:35;;;;;;;4.55;4.10;;;7.10;99.90;;;;;;5010912;28;20117;-40
2023/01/09 01:39:01;;;;;;;5.82;3.83;;;7.10;99.90;;;;;;5000899;28;20125;-39
2023/01/09 01:41:29;;;;;;;6.13;3.88;;;7.10;99.90;;;;;;5003444;28;20095;-40
2023/01/09 01:43:57;;;;;;;5.65;4.50;;;7.10;99.90;;;;;;5003458;28;20058;-39
2023/01/09 01:46:23;;;;;;;5.90;4.30;;;7.10;99.90;;;;;;5001057;28;20484;-43
2023/01/09 01:48:58;;;;;;;5.68;4.28;;;7.10;99.90;;;;;;5006483;28;20060;-42
2023/01/09 01:51:25;;;;;;;4.18;3.53;;;7.10;99.90;;;;;;5008434;28;20038;-43
2023/01/09 01:53:57;;;;;;;6.57;3.70;;;7.00;99.90;;;;;;5011334;28;20038;-42
2023/01/09 01:56:26;;;;;;;6.38;4.13;;;7.00;99.90;;;;;;5002662;28;20091;-43
2023/01/09 01:59:14;;;;;;;4.07;3.60;;;7.00;99.90;;;;;;5002813;28;20487;-43
2023/01/09 02:01:43;;;;;;;7.20;5.80;;;6.90;99.90;;;;;;5023644;28;20476;-43
2023/01/09 02:04:09;;;;;;;5.85;3.20;;;6.90;99.90;;;;;;5007184;28;20042;-44
2023/01/09 02:06:37;;;;;;;5.15;3.47;;;6.90;99.90;;;;;;4999197;28;20031;-43
2023/01/09 02:09:05;;;;;;;8.02;4.13;;;6.90;99.90;;;;;;5001452;28;20041;-43
2023/01/09 02:11:31;;;;;;;3.47;2.70;;;6.90;99.90;;;;;;5012734;28;20038;-43
2023/01/09 02:13:57;;;;;;;4.03;2.95;;;6.90;99.90;;;;;;5013083;28;20479;-44
2023/01/09 02:16:46;;;;;;;4.85;2.95;;;6.90;99.90;;;;;;5001397;28;20476;-43
2023/01/09 02:19:44;;;;;;;3.60;3.00;;;6.80;99.90;;;;;;5001367;28;20041;-43
2023/01/09 02:22:51;;;;;;;5.35;3.17;;;6.80;99.90;;;;;;5007031;28;20589;-43
2023/01/09 02:25:43;;;;;;;3.63;1.95;;;6.80;99.90;;;;;;5026175;28;20046;-45
2023/01/09 02:28:11;;;;;;;5.05;2.13;;;6.80;99.90;;;;;;4980484;28;20073;-42
2023/01/09 02:30:40;;;;;;;6.22;3.75;;;6.90;99.90;;;;;;5010847;28;20030;-43
2023/01/09 02:33:06;;;;;;;7.80;3.97;;;6.80;99.90;;;;;;5016759;28;20518;-44
2023/01/09 02:35:43;;;;;;;6.50;2.80;;;6.80;99.90;;;;;;5014876;28;20045;-44
2023/01/09 02:38:26;;;;;;;3.83;2.78;;;6.80;99.90;;;;;;5012413;28;20037;-42
2023/01/09 02:41:15;;;;;;;5.78;2.75;;;6.80;99.90;;;;;;5008599;28;20141;-43
2023/01/09 02:43:41;;;;;;;5.47;2.75;;;6.70;99.90;;;;;;5011896;28;20037;-42
2023/01/09 02:46:20;;;;;;;5.25;2.30;;;6.60;99.90;;;;;;4999402;28;20041;-42
2023/01/09 02:48:49;;;;;;;6.53;3.55;;;6.60;99.90;;;;;;5018782;28;20030;-42
2023/01/09 02:51:30;;;;;;;4.18;2.20;;;6.50;99.90;;;;;;5010126;28;20046;-42
2023/01/09 02:54:03;;;;;;;3.92;2.80;;;6.50;99.90;;;;;;5004956;28;20033;-43
2023/01/09 02:56:37;;;;;;;7.33;3.80;;;6.40;99.90;;;;;;4999225;28;20049;-43
2023/01/09 02:59:36;;;;;;;7.43;3.20;;;6.30;99.90;;;;;;5023724;28;20045;-42
2023/01/09 03:02:06;;;;;;;5.95;2.67;;;6.30;99.90;;;;;;5013161;28;20038;-42
2023/01/09 03:04:42;;;;;;;4.78;2.78;;;6.20;99.90;;;;;;5007926;28;20045;-45
2023/01/09 03:07:24;;;;;;;3.47;2.40;;;6.20;99.90;;;;;;5009083;28;20510;-42
2023/01/09 03:09:56;;;;;;;3.47;2.38;;;6.10;99.90;;;;;;5005920;28;20045;-42
2023/01/09 03:12:23;;;;;;;4.32;2.50;;;6.10;99.90;;;;;;5013438;28;20076;-42
2023/01/09 03:14:52;;;;;;;3.35;2.40;;;6.10;99.90;;;;;;5011317;28;20076;-42
2023/01/09 03:17:24;;;;;;;4.40;2.70;;;6.00;99.90;;;;;;5013640;28;20038;-42
2023/01/09 03:19:53;;;;;;;4.63;2.70;;;5.90;99.90;;;;;;5009449;28;20108;-42
2023/01/09 03:22:19;;;;;;;4.75;2.75;;;5.90;99.90;;;;;;5010285;28;20038;-43
2023/01/09 03:24:45;;;;;;;4.68;3.00;;;5.80;99.90;;;;;;5007405;28;20100;-43
2023/01/09 03:27:11;;;;;;;5.82;3.28;;;5.80;99.90;;;;;;5010195;28;20042;-44
2023/01/09 03:29:37;;;;;;;5.28;3.05;;;5.80;99.90;;;;;;5013596;28;20038;-42
2023/01/09 03:32:02;;;;;;;4.05;2.58;;;5.70;99.90;;;;;;5029430;28;20399;-42
2023/01/09 03:34:28;;;;;;;4.43;3.20;;;5.70;99.90;;;;;;5012613;28;20061;-42
2023/01/09 03:36:54;;;;;;;4.90;2.88;;;5.60;99.90;;;;;;5008760;28;20095;-42
2023/01/09 03:39:20;;;;;;;5.53;3.58;;;5.50;99.90;;;;;;5014287;28;20125;-46
2023/01/09 03:41:45;;;;;;;4.03;3.33;;;5.50;99.90;;;;;;5018533;28;20030;-42
2023/01/09 03:44:11;;;;;;;5.50;3.40;;;5.50;99.90;;;;;;5012983;28;20045;-43
2023/01/09 03:46:37;;;;;;;4.57;3.47;;;5.40;99.90;;;;;;5016281;28;20124;-43
2023/01/09 03:49:03;;;;;;;5.25;3.90;;;5.40;99.90;;;;;;5012777;28;20112;-43
2023/01/09 03:51:28;;;;;;;6.43;4.20;;;5.30;99.90;;;;;;5007026;28;20447;-41
2023/01/09 03:53:54;;;;;;;7.47;4.18;;;5.30;99.90;;;;;;5004127;28;20077;-42
2023/01/09 03:56:20;;;;;;;6.25;4.07;;;5.30;99.90;;;;;;5004240;28;20319;-43
2023/01/09 03:58:48;;;;;;;6.97;4.78;;;5.30;99.90;;;;;;5012971;28;20407;-42
2023/01/09 04:01:14;;;;;;;14.43;7.63;;;5.30;99.90;;;;;;4995226;28;20030;-42
2023/01/09 04:03:40;;;;;;;9.15;5.15;;;5.40;99.90;;;;;;5015996;28;20038;-40
2023/01/09 04:06:06;;;;;;;7.40;5.25;;;5.40;99.90;;;;;;5026648;28;20076;-39
2023/01/09 04:08:33;;;;;;;10.18;5.20;;;5.40;99.90;;;;;;5004743;28;20037;-40
2023/01/09 04:10:58;;;;;;;11.48;7.00;;;5.50;99.90;;;;;;4997840;28;20041;-39
2023/01/09 04:13:24;;;;;;;8.77;5.85;;;5.50;99.90;;;;;;5009423;28;20057;-40
2023/01/09 04:15:50;;;;;;;10.45;7.15;;;5.40;99.90;;;;;;5008036;28;20034;-39
2023/01/09 04:18:16;;;;;;;9.40;7.85;;;5.40;99.90;;;;;;5027509;28;20086;-39
2023/01/09 04:20:41;;;;;;;11.10;8.15;;;5.40;99.90;;;;;;5011651;28;20403;-39
2023/01/09 04:23:07;;;;;;;11.85;8.27;;;5.40;99.90;;;;;;5020594;28;20049;-39
2023/01/09 04:25:34;;;;;;;13.68;8.95;;;5.30;99.90;;;;;;5007270;28;20387;-39
2023/01/09 04:27:59;;;;;;;13.27;8.40;;;5.30;99.90;;;;;;5007870;28;20037;-39
2023/01/09 04:30:25;;;;;;;13.38;9.57;;;5.30;99.90;;;;;;5017408;28;20034;-39
2023/01/09 04:32:51;;;;;;;13.20;8.98;;;5.20;99.90;;;;;;5012235;28;20491;-39
2023/01/09 04:35:17;;;;;;;14.75;8.77;;;5.20;99.90;;;;;;5022411;28;20549;-39
2023/01/09 04:37:43;;;;;;;15.52;10.13;;;5.10;99.90;;;;;;5012922;28;20041;-39
2023/01/09 04:40:10;;;;;;;15.85;10.13;;;5.10;99.90;;;;;;5011759;28;20557;-39
2023/01/09 04:42:37;;;;;;;14.75;9.73;;;5.10;99.90;;;;;;5012034;28;20042;-39
2023/01/09 04:45:05;;;;;;;13.98;9.88;;;5.10;99.90;;;;;;5029922;28;20485;-41
2023/01/09 04:47:31;;;;;;;17.08;9.95;;;5.00;99.90;;;;;;5008029;28;20142;-39
2023/01/09 04:49:57;;;;;;;17.50;10.73;;;5.00;99.90;;;;;;5007988;28;21245;-40
2023/01/09 04:52:23;;;;;;;17.73;10.52;;;5.00;99.90;;;;;;5011809;28;20038;-39
2023/01/09 04:54:49;;;;;;;16.20;10.85;;;4.90;99.90;;;;;;5007404;28;20107;-39
2023/01/09 04:57:15;;;;;;;18.75;11.00;;;4.90;99.90;;;;;;5010011;28;20034;-39
2023/01/09 04:59:41;;;;;;;17.77;11.70;;;5.00;99.90;;;;;;5011859;28;20125;-39
2023/01/09 05:02:07;;;;;;;18.80;11.75;;;5.00;99.90;;;;;;5017233;28;20117;-39
2023/01/09 05:04:32;;;;;;;17.70;11.30;;;5.00;99.90;;;;;;5003212;28;20492;-39
2023/01/09 05:06:58;;;;;;;17.00;11.48;;;5.10;99.90;;;;;;5015839;28;20093;-39
2023/01/09 05:09:24;;;;;;;16.13;11.05;;;5.00;99.90;;;;;;5008962;28;20030;-39
2023/01/09 05:11:50;;;;;;;16.23;10.57;;;5.00;99.90;;;;;;5003735;28;20451;-39
2023/01/09 05:14:16;;;;;;;17.77;11.43;;;5.00;99.90;;;;;;5009822;28;20092;-39
2023/01/09 05:16:42;;;;;;;15.70;10.35;;;5.00;99.90;;;;;;5010597;28;20499;-39
2023/01/09 05:19:07;;;;;;;17.95;11.05;;;5.00;99.90;;;;;;5013011;28;20046;-39
2023/01/09 05:21:33;;;;;;;16.38;10.27;;;5.00;99.90;;;;;;5012056;28;20324;-39
2023/01/09 05:23:59;;;;;;;16.52;10.40;;;5.00;99.90;;;;;;5012536;28;20070;-40
2023/01/09 05:26:26;;;;;;;15.65;9.68;;;5.00;99.90;;;;;;5012774;28;20116;-39
2023/01/09 05:28:52;;;;;;;14.35;9.98;;;5.10;99.90;;;;;;5013286;28;20037;-39
2023/01/09 05:31:19;;;;;;;14.05;9.00;;;5.10;99.90;;;;;;4999583;28;20030;-39
2023/01/09 05:33:45;;;;;;;13.63;9.85;;;5.10;99.90;;;;;;5013053;28;20630;-39
2023/01/09 05:36:10;;;;;;;13.85;9.18;;;5.00;99.90;;;;;;5009624;28;20164;-39
2023/01/09 05:38:37;;;;;;;14.45;8.65;;;5.00;99.90;;;;;;5008992;28;20030;-39
2023/01/09 05:41:03;;;;;;;14.43;9.20;;;5.00;99.90;;;;;;5003822;28;20045;-39
2023/01/09 05:43:29;;;;;;;14.55;8.52;;;5.00;99.90;;;;;;5014865;28;20030;-39
2023/01/09 05:45:54;;;;;;;16.92;8.65;;;5.00;99.90;;;;;;5006078;28;20514;-39
2023/01/09 05:48:20;;;;;;;13.73;8.57;;;5.00;99.90;;;;;;5010846;28;20096;-39
2023/01/09 05:50:48;;;;;;;13.65;8.68;;;5.00;99.90;;;;;;4995403;28;20092;-39
2023/01/09 05:53:14;;;;;;;12.82;8.05;;;5.10;99.90;;;;;;5001941;28;20101;-39
2023/01/09 05:55:39;;;;;;;18.13;9.00;;;5.10;99.90;;;;;;5000720;28;20038;-39
2023/01/09 05:58:05;;;;;;;10.52;8.50;;;5.10;99.90;;;;;;5007671;28;20073;-39
2023/01/09 06:00:31;;;;;;;14.32;8.27;;;5.10;99.90;;;;;;5009425;28;20073;-40
2023/01/09 06:02:57;;;;;;;13.45;8.98;;;5.10;99.90;;;;;;4998873;28;20121;-39
2023/01/09 06:05:23;;;;;;;13.40;8.68;;;5.10;99.90;;;;;;5009887;28;20058;-39
2023/01/09 06:07:48;;;;;;;11.77;8.27;;;5.10;99.90;;;;;;5007803;28;20494;-39
2023/01/09 06:10:15;;;;;;;11.45;8.15;;;5.20;99.90;;;;;;5026812;28;20088;-39
2023/01/09 06:12:45;;;;;;;11.80;8.07;;;5.20;99.90;;;;;;5003279;28;20487;-39
2023/01/09 06:15:11;;;;;;;12.45;7.85;;;5.20;99.90;;;;;;5010968;28;20034;-39
2023/01/09 06:17:38;;;;;;;13.27;8.32;;;5.20;99.90;;;;;;5007422;28;20451;-38
2023/01/09 06:20:04;;;;;;;12.98;8.35;;;5.20;99.90;;;;;;5006897;28;20052;-42
2023/01/09 06:22:30;;;;;;;13.77;7.38;;;5.20;99.90;;;;;;5018240;28;20037;-39
2023/01/09 06:24:55;;;;;;;12.80;7.75;;;5.20;99.90;;;;;;5006397;28;20085;-39
2023/01/09 06:27:21;;;;;;;11.98;6.97;;;5.20;99.90;;;;;;5025592;28;20100;-39
2023/01/09 06:29:47;;;;;;;13.43;7.00;;;5.20;99.90;;;;;;5012876;28;20051;-39
2023/01/09 06:32:12;;;;;;;12.65;8.43;;;5.10;99.90;;;;;;5010166;28;20041;-39
2023/01/09 06:34:38;;;;;;;13.93;8.90;;;5.10;99.90;;;;;;5011701;28;20045;-39
2023/01/09 06:37:04;;;;;;;12.55;8.02;;;5.10;99.90;;;;;;5010159;28;20049;-39
2023/01/09 06:39:30;;;;;;;11.77;8.63;;;5.00;99.90;;;;;;5016659;28;20042;-39
2023/01/09 06:41:55;;;;;;;19.08;12.73;;;4.90;99.90;;;;;;5018039;28;20038;-38
2023/01/09 06:44:21;;;;;;;12.68;8.07;;;4.90;99.90;;;;;;5000447;28;20058;-39
2023/01/09 06:46:47;;;;;;;12.30;7.28;;;4.80;99.90;;;;;;5013455;28;20483;-39
2023/01/09 06:49:12;;;;;;;10.38;7.43;;;4.80;99.90;;;;;;5005246;28;20038;-39
2023/01/09 06:51:39;;;;;;;13.20;8.02;;;4.80;99.90;;;;;;5009587;28;20069;-39
2023/01/09 06:54:05;;;;;;;14.13;9.70;;;4.70;99.90;;;;;;5026235;28;20541;-38
2023/01/09 06:56:30;;;;;;;14.07;8.88;;;4.60;99.90;;;;;;5008684;28;20137;-39
2023/01/09 06:58:56;;;;;;;9.80;7.22;;;4.60;99.90;;;;;;5019953;28;20033;-39
2023/01/09 07:01:22;;;;;;;15.25;9.88;;;4.50;99.90;;;;;;5002230;28;20038;-39
2023/01/09 07:03:48;;;;;;;10.50;7.15;;;4.50;99.90;;;;;;5001990;28;20107;-39
2023/01/09 07:06:14;;;;;;;16.17;7.65;;;4.50;99.90;;;;;;5010997;28;20400;-39
2023/01/09 07:08:39;;;;;;;11.95;6.70;;;4.50;99.90;;;;;;4992634;28;20096;-38
2023/01/09 07:11:05;;;;;;;9.15;6.82;;;4.50;99.90;;;;;;5002797;28;20034;-39
2023/01/09 07:13:31;;;;;;;9.65;6.70;;;4.50;99.90;;;;;;5004533;28;20450;-39
2023/01/09 07:15:57;;;;;;;10.65;5.65;;;4.50;99.90;;;;;;5009974;28;20052;-39
2023/01/09 07:18:22;;;;;;;10.07;5.45;;;4.50;99.90;;;;;;4996708;28;20070;-39
2023/01/09 07:20:48;;;;;;;11.65;6.18;;;4.60;99.90;;;;;;5006449;28;20559;-39
2023/01/09 07:23:14;;;;;;;8.60;5.47;;;4.60;99.90;;;;;;5007794;28;20048;-39
2023/01/09 07:25:43;;;;;;;10.10;5.50;;;4.70;99.90;;;;;;5007232;28;20431;-39
2023/01/09 07:28:09;;;;;;;8.70;6.00;;;4.70;99.90;;;;;;5018111;28;20104;-39
2023/01/09 07:30:35;;;;;;;9.05;5.95;;;4.80;99.90;;;;;;5007773;28;20054;-39
2023/01/09 07:33:01;;;;;;;7.80;5.13;;;4.80;99.90;;;;;;5013187;28;20385;-39
2023/01/09 07:35:27;;;;;;;10.40;5.50;;;4.80;99.90;;;;;;5009160;28;20049;-39
2023/01/09 07:37:53;;;;;;;9.63;5.13;;;4.80;99.90;;;;;;5015301;28;20096;-39
2023/01/09 07:40:18;;;;;;;10.85;5.45;;;4.90;99.90;;;;;;5007999;28;20042;-39
2023/01/09 07:42:44;;;;;;;12.95;5.63;;;4.90;99.90;;;;;;5002926;28;20057;-41
2023/01/09 07:45:10;;;;;;;9.45;5.57;;;5.00;99.90;;;;;;5010073;28;20040;-39
2023/01/09 07:47:38;;;;;;;9.98;5.50;;;5.00;99.90;;;;;;5014131;28;20034;-39
2023/01/09 07:50:04;;;;;;;8.15;5.13;;;5.00;99.90;;;;;;5012381;28;20056;-39
2023/01/09 07:52:29;;;;;;;10.18;5.00;;;5.10;99.90;;;;;;5007160;28;20038;-38
2023/01/09 07:54:55;;;;;;;9.35;5.07;;;5.10;99.90;;;;;;5006561;28;20069;-39
2023/01/09 07:57:21;;;;;;;10.50;5.15;;;5.20;99.90;;;;;;5008699;28;20111;-41
2023/01/09 07:59:46;;;;;;;8.93;5.40;;;5.20;99.90;;;;;;5016870;28;20488;-41
2023/01/09 08:02:12;;;;;;;10.68;6.00;;;5.30;99.90;;;;;;5016131;28;20057;-42
2023/01/09 08:04:38;;;;;;;10.68;5.28;;;5.30;99.90;;;;;;4998446;28;20117;-42
2023/01/09 08:07:04;;;;;;;10.77;4.95;;;5.30;99.90;;;;;;5010825;28;20125;-41
2023/01/09 08:09:29;;;;;;;9.73;5.60;;;5.40;99.90;;;;;;5010262;28;20031;-41
2023/01/09 08:11:56;;;;;;;8.10;4.93;;;5.40;99.90;;;;;;5008440;28;20495;-41
2023/01/09 08:14:22;;;;;;;8.95;5.70;;;5.40;99.90;;;;;;5028232;28;20051;-42
2023/01/09 08:16:47;;;;;;;9.90;5.20;;;5.50;99.90;;;;;;5007915;28;20551;-42
2023/01/09 08:19:13;;;;;;;9.45;5.60;;;5.50;99.90;;;;;;5024478;28;20042;-42
2023/01/09 08:21:39;;;;;;;7.20;5.28;;;5.50;99.90;;;;;;5005310;28;20054;-41
2023/01/09 08:24:05;;;;;;;10.93;5.43;;;5.50;99.90;;;;;;5003337;28;20061;-40
2023/01/09 08:26:31;;;;;;;11.25;5.47;;;5.60;99.90;;;;;;5011372;28;20037;-41
2023/01/09 08:28:57;;;;;;;8.60;5.40;;;5.60;99.90;;;;;;5013582;28;20034;-42
2023/01/09 08:31:26;;;;;;;10.77;5.80;;;5.60;99.90;;;;;;5010037;28;20042;-42
2023/01/09 08:33:51;;;;;;;8.73;4.93;;;5.60;99.90;;;;;;5004484;28;20037;-42
2023/01/09 08:36:17;;;;;;;9.10;5.43;;;5.60;99.90;;;;;;5016986;28;20038;-43
2023/01/09 08:38:43;;;;;;;10.23;4.97;;;5.70;99.90;;;;;;4998533;28;20078;-41
2023/01/09 08:49:21;;;;;;;11.60;5.90;;;5.80;99.90;;;;;;5011812;28;20397;-42
2023/01/09 08:51:47;;;;;;;11.25;5.53;;;5.90;99.90;;;;;;5005335;28;20281;-42
2023/01/09 08:54:13;;;;;;;11.25;5.82;;;5.90;99.90;;;;;;5008345;28;20045;-42
2023/01/09 08:56:38;;;;;;;11.82;5.97;;;5.90;99.90;;;;;;5009926;28;20116;-41
2023/01/09 08:59:04;;;;;;;8.52;5.20;;;5.90;99.90;;;;;;5013008;28;20041;-42
2023/01/09 09:01:31;;;;;;;12.27;5.45;;;5.90;99.90;;;;;;5010312;28;20073;-41
2023/01/09 09:03:56;;;;;;;10.13;5.25;;;6.00;99.90;;;;;;5004178;28;20104;-42
2023/01/09 09:06:22;;;;;;;12.48;6.45;;;6.00;99.90;;;;;;5003310;28;20050;-40
2023/01/09 09:08:48;;;;;;;9.55;6.18;;;6.00;99.90;;;;;;5005938;28;20037;-42
2023/01/09 09:11:13;;;;;;;9.40;6.07;;;6.10;99.90;;;;;;5011436;28;20040;-40
2023/01/09 09:13:39;;;;;;;11.93;6.43;;;6.10;99.90;;;;;;5011266;28;20406;-41
2023/01/09 09:16:05;;;;;;;10.65;5.80;;;6.10;99.90;;;;;;5011674;28;20025;-40
2023/01/09 09:18:31;;;;;;;11.25;5.10;;;6.20;99.90;;;;;;5010088;28;20039;-40
2023/01/09 09:20:57;;;;;;;12.02;5.00;;;6.30;99.90;;;;;;5007026;28;20034;-41
2023/01/09 09:23:22;;;;;;;10.00;4.88;;;6.40;99.90;;;;;;5007257;28;20038;-40
2023/01/09 09:25:48;;;;;;;10.05;4.93;;;6.40;99.90;;;;;;4999474;28;20431;-42
2023/01/09 09:28:14;;;;;;;7.88;4.43;;;6.50;99.90;;;;;;5011374;28;20038;-43
2023/01/09 09:30:41;;;;;;;9.20;5.18;;;6.50;99.90;;;;;;4980966;28;20033;-43
2023/01/09 09:33:08;;;;;;;10.02;5.15;;;6.60;99.90;;;;;;5007243;28;20042;-43
2023/01/09 09:35:34;;;;;;;7.15;4.20;;;6.60;99.90;;;;;;4998949;28;20038;-42
2023/01/09 09:38:01;;;;;;;7.93;4.32;;;6.60;99.90;;;;;;5026581;28;20462;-42
2023/01/09 09:40:50;;;;;;;7.93;4.40;;;6.70;99.90;;;;;;5017290;28;20066;-42
2023/01/09 09:46:51;;;;;;;11.02;4.85;;;6.70;99.90;;;;;;4997862;28;20125;-42
2023/01/09 09:49:20;;;;;;;11.30;4.45;;;6.80;99.90;;;;;;5019831;28;20042;-41
2023/01/09 09:51:52;;;;;;;9.93;4.15;;;6.80;99.90;;;;;;5002080;28;20053;-42
2023/01/09 09:54:26;;;;;;;5.53;4.28;;;6.80;99.90;;;;;;5009240;28;20069;-41
2023/01/09 09:56:59;;;;;;;;;;;6.80;99.90;;;;;;5008636;28;20046;-42
2023/01/09 09:59:31;;;;;;;5.97;3.90;;;6.80;99.90;;;;;;5020448;28;19943;-41
2023/01/09 10:02:37;;;;;;;8.45;4.78;;;6.80;99.90;;;;;;5008290;28;20048;-41
2023/01/09 10:05:15;;;;;;;10.00;5.03;;;6.80;99.90;;;;;;4957464;28;20042;-41
2023/01/09 10:07:45;;;;;;;8.32;4.80;;;6.80;99.90;;;;;;5003933;28;20038;-42
2023/01/09 10:10:31;;;;;;;10.90;5.25;;;6.80;99.90;;;;;;5013805;28;20518;-40
2023/01/09 10:12:58;;;;;;;12.88;4.47;;;6.80;99.90;;;;;;5003026;28;20038;-41
2023/01/09 10:15:47;;;;;;;8.50;4.50;;;6.80;99.90;;;;;;4994753;28;20048;-41
2023/01/09 10:18:31;;;;;;;7.82;5.07;;;6.80;99.90;;;;;;5010535;28;20497;-42
2023/01/09 10:21:09;;;;;;;8.25;4.47;;;6.80;99.90;;;;;;4995990;28;20521;-43
2023/01/09 10:23:48;;;;;;;9.73;4.50;;;6.80;99.90;;;;;;5016084;28;20070;-43
2023/01/09 10:26:27;;;;;;;9.32;4.38;;;6.90;99.90;;;;;;5001308;28;20042;-41
2023/01/09 10:29:08;;;;;;;6.60;4.40;;;6.90;99.90;;;;;;5015865;28;20499;-41
2023/01/09 10:31:49;;;;;;;5.90;4.10;;;6.90;99.90;;;;;;5018299;28;20554;-43
2023/01/09 10:34:33;;;;;;;7.25;4.57;;;6.90;99.90;;;;;;5009931;28;20499;-40
2023/01/09 10:37:15;;;;;;;8.43;5.05;;;6.90;99.90;;;;;;5015187;28;20042;-41
2023/01/09 10:39:51;;;;;;;8.88;4.70;;;6.90;99.90;;;;;;5000050;28;20053;-41
2023/01/09 10:42:16;;;;;;;8.35;4.75;;;7.00;99.90;;;;;;5007713;28;20042;-41
2023/01/09 10:45:02;;;;;;;5.45;4.70;;;7.00;99.90;;;;;;5007831;28;20395;-42
2023/01/09 10:47:33;;;;;;;8.75;4.63;;;7.00;99.90;;;;;;5016569;28;20049;-40
2023/01/09 10:50:01;;;;;;;5.90;4.25;;;7.00;99.90;;;;;;5010284;28;20040;-41
2023/01/09 10:52:38;;;;;;;7.85;4.50;;;7.00;99.90;;;;;;5002588;28;20120;-40
2023/01/09 10:55:12;;;;;;;7.28;5.13;;;6.90;99.90;;;;;;5009234;28;20516;-42
2023/01/09 10:57:42;;;;;;;;;;;7.00;99.90;;;;;;5004748;28;20099;-41
2023/01/09 11:00:16;;;;;;;7.93;6.30;;;6.90;99.90;;;;;;5004236;28;20375;-41
2023/01/09 11:02:42;;;;;;;10.40;8.48;;;6.90;99.90;;;;;;5007337;28;20415;-41
2023/01/09 11:05:13;;;;;;;9.50;7.90;;;6.90;99.90;;;;;;5017006;28;20034;-41
2023/01/09 11:07:43;;;;;;;10.50;7.18;;;6.90;99.90;;;;;;5004513;28;20025;-41
2023/01/09 11:10:11;;;;;;;6.97;5.80;;;6.90;99.90;;;;;;5007942;28;20511;-40
2023/01/09 11:12:38;;;;;;;8.02;5.10;;;6.90;99.90;;;;;;5019390;28;20046;-41
2023/01/09 11:15:18;;;;;;;6.90;5.43;;;6.90;99.90;;;;;;5009589;28;20041;-41
2023/01/09 11:17:46;;;;;;;8.77;6.45;;;6.90;99.90;;;;;;5017705;28;20038;-40
2023/01/09 11:20:22;;;;;;;9.45;5.80;;;6.90;99.90;;;;;;5000899;28;20463;-42
2023/01/09 11:22:49;;;;;;;12.02;7.22;;;6.90;99.90;;;;;;5014998;28;20038;-41
2023/01/09 11:25:17;;;;;;;8.60;6.35;;;6.90;99.90;;;;;;5010839;28;20080;-40
2023/01/09 11:28:03;;;;;;;10.18;6.95;;;6.90;99.90;;;;;;5023202;28;20034;-41
2023/01/09 11:30:32;;;;;;;10.10;6.50;;;6.90;99.90;;;;;;5024993;28;20034;-41
2023/01/09 11:32:59;;;;;;;9.88;7.20;;;6.90;99.90;;;;;;5020650;28;20049;-41
2023/01/09 11:35:30;;;;;;;10.27;7.15;;;6.90;99.90;;;;;;5002210;28;20403;-41
2023/01/09 11:38:13;;;;;;;13.50;11.63;;;6.90;99.90;;;;;;5024512;28;20073;-42
2023/01/09 11:41:00;;;;;;;11.80;8.55;;;6.90;99.90;;;;;;5007072;28;20449;-41
2023/01/09 11:43:37;;;;;;;17.95;15.60;;;6.80;99.90;;;;;;5023966;28;20149;-40
2023/01/09 11:46:28;;;;;;;13.02;10.75;;;6.80;99.90;;;;;;5007641;28;20042;-41
2023/01/09 11:48:56;;;;;;;9.00;7.22;;;6.80;99.90;;;;;;5023874;28;20115;-41
2023/01/09 11:51:25;;;;;;;12.20;8.07;;;6.90;99.90;;;;;;5007382;28;20431;-40
2023/01/09 11:54:16;;;;;;;13.93;11.15;;;6.90;99.90;;;;;;5006891;28;20073;-40
2023/01/09 11:56:42;;;;;;;14.18;12.10;;;6.90;99.90;;;;;;5009790;28;20094;-40
2023/01/09 11:59:14;;;;;;;11.98;9.70;;;6.90;99.90;;;;;;5012993;28;20844;-41
2023/01/09 12:01:46;;;;;;;12.18;9.93;;;6.90;99.90;;;;;;5008741;28;20463;-41
2023/01/09 12:04:18;;;;;;;198.00;90.38;;;7.00;99.90;;;;;;5019584;28;20070;-41
2023/01/09 12:07:05;;;;;;;21.25;13.40;;;6.90;99.90;;;;;;5021731;28;20030;-40
2023/01/09 12:09:34;;;;;;;14.90;9.65;;;7.00;99.90;;;;;;5021704;28;20423;-41
2023/01/09 12:12:39;;;;;;;14.27;9.50;;;7.00;99.90;;;;;;5001969;28;20042;-41
2023/01/09 12:15:53;;;;;;;15.15;9.65;;;7.00;99.90;;;;;;5010775;28;20442;-41
2023/01/09 12:18:22;;;;;;;16.35;9.60;;;7.10;99.90;;;;;;4990653;28;20144;-41
2023/01/09 12:21:26;;;;;;;12.93;9.93;;;7.10;99.90;;;;;;5007481;28;20045;-41
2023/01/09 12:24:09;;;;;;;14.05;11.20;;;7.10;99.90;;;;;;5021852;28;20053;-41
2023/01/09 12:27:00;;;;;;;14.52;9.88;;;7.10;99.90;;;;;;5018216;28;20034;-43
2023/01/09 12:29:47;;;;;;;21.17;12.45;;;7.10;99.90;;;;;;5000045;28;20038;-42
2023/01/09 12:32:37;;;;;;;15.25;10.35;;;7.20;99.90;;;;;;5006960;28;20191;-41
2023/01/09 12:35:27;;;;;;;14.10;10.93;;;7.20;99.90;;;;;;5001686;28;20507;-42
2023/01/09 12:38:06;;;;;;;21.60;13.43;;;7.20;99.90;;;;;;5012555;28;20041;-42
2023/01/09 12:40:52;;;;;;;16.95;10.93;;;7.20;99.90;;;;;;4998798;28;20045;-42
2023/01/09 12:43:36;;;;;;;16.92;10.73;;;7.30;99.90;;;;;;5011527;28;20144;-40
2023/01/09 12:46:18;;;;;;;19.27;11.02;;;7.30;99.90;;;;;;5026496;28;20041;-41
2023/01/09 12:49:02;;;;;;;13.18;9.75;;;7.30;99.90;;;;;;5006961;28;20527;-41
2023/01/09 12:51:43;;;;;;;;;;;7.30;99.90;;;;;;5013006;28;20040;-42
2023/01/09 12:54:27;;;;;;;18.90;11.13;;;7.30;99.90;;;;;;5008616;28;19944;-41
2023/01/09 12:57:01;;;;;;;15.80;11.13;;;7.30;99.90;;;;;;5015927;28;20046;-40
2023/01/09 12:59:33;;;;;;;16.48;11.77;;;7.30;99.90;;;;;;5025684;28;20048;-41
2023/01/09 13:02:31;;;;;;;16.30;11.25;;;7.30;99.90;;;;;;5004871;28;20050;-41
2023/01/09 13:05:05;;;;;;;14.93;11.10;;;7.30;99.90;;;;;;4983565;28;20042;-42
2023/01/09 13:07:37;;;;;;;17.20;12.50;;;7.30;99.90;;;;;;4992751;28;20422;-41
2023/01/09 13:10:22;;;;;;;17.88;11.80;;;7.40;99.90;;;;;;5009972;28;20042;-42
2023/01/09 13:12:50;;;;;;;17.35;11.98;;;7.40;99.90;;;;;;4997132;28;20074;-41
2023/01/09 13:15:28;;;;;;;25.80;12.75;;;7.40;99.90;;;;;;5001682;28;20042;-41
2023/01/09 13:18:32;;;;;;;18.60;12.10;;;7.40;99.90;;;;;;5011336;28;20049;-41
2023/01/09 13:20:58;;;;;;;;;;;7.40;99.90;;;;;;5015409;28;20414;-42
2023/01/09 13:23:54;;;;;;;18.17;11.30;;;7.50;99.90;;;;;;5014186;28;19921;-41